createdAt,value
2022-12-15T00:01:43.248Z,100202.22
2022-12-15T00:04:28.008Z,100200.50
2022-12-15T00:07:12.849Z,100199.13
2022-12-15T00:09:57.664Z,100195.09
2022-12-15T00:12:42.422Z,100199.59
2022-12-15T00:15:27.760Z,100203.72
2022-12-15T00:18:12.511Z,100199.59
2022-12-15T00:20:57.284Z,100203.41
2022-12-15T00:23:42.061Z,100201.78
2022-12-15T00:26:27.279Z,100205.53
2022-12-15T00:29:12.173Z,100210.38
2022-12-15T00:31:56.907Z,100214.50
2022-12-15T00:34:42.019Z,100222.84
2022-12-15T00:37:26.903Z,100207.81
2022-12-15T00:39:58.476Z,100213.59
2022-12-15T00:42:26.696Z,100217.16
2022-12-15T00:44:53.021Z,100223.66
2022-12-15T00:47:19.398Z,100229.25
2022-12-15T00:50:04.355Z,100232.44
2022-12-15T00:52:49.288Z,100231.44
2022-12-15T00:55:34.580Z,100240.69
2022-12-15T00:58:19.474Z,100239.56
2022-12-15T01:01:04.160Z,100237.69
2022-12-15T01:03:49.012Z,100239.13
2022-12-15T01:06:36.357Z,100235.28
2022-12-15T01:09:22.744Z,100245.28
2022-12-15T01:12:07.634Z,100236.28
2022-12-15T01:14:52.997Z,100233.66
2022-12-15T01:17:38.392Z,100230.44
2022-12-15T01:20:17.411Z,100237.94
2022-12-15T01:22:54.898Z,100237.00
2022-12-15T01:25:24.732Z,100244.91
2022-12-15T01:27:51.709Z,100240.41
2022-12-15T01:30:24.371Z,100255.41
2022-12-15T01:32:51.386Z,100251.03
2022-12-15T01:35:18.220Z,100255.06
2022-12-15T01:37:44.891Z,100260.66
2022-12-15T01:40:35.592Z,100261.38
2022-12-15T01:43:02.018Z,100260.00
2022-12-15T01:45:28.346Z,100261.59
2022-12-15T01:48:09.055Z,100268.63
2022-12-15T01:50:46.867Z,100266.81
2022-12-15T01:53:14.106Z,100276.69
2022-12-15T01:55:44.202Z,100283.66
2022-12-15T01:58:16.718Z,100284.63
2022-12-15T02:00:43.689Z,100288.56
2022-12-15T02:03:11.913Z,100291.00
2022-12-15T02:05:39.816Z,100299.97
2022-12-15T02:08:07.143Z,100289.84
2022-12-15T02:10:50.485Z,100283.31
2022-12-15T02:13:40.179Z,100289.56
2022-12-15T02:16:09.690Z,100286.06
2022-12-15T02:18:46.174Z,100284.34
2022-12-15T02:21:27.307Z,100283.13
2022-12-15T02:24:32.704Z,100283.72
2022-12-15T02:27:30.090Z,100281.59
2022-12-15T02:30:19.865Z,100287.50
2022-12-15T02:32:52.288Z,100294.25
2022-12-15T02:35:32.892Z,100287.50
2022-12-15T02:38:00.433Z,100304.56
2022-12-15T02:40:26.865Z,100305.94
2022-12-15T02:42:58.831Z,100297.72
2022-12-15T02:45:36.508Z,100301.94
2022-12-15T02:48:27.554Z,100309.69
2022-12-15T02:51:06.170Z,100305.59
2022-12-15T02:53:49.439Z,100317.34
2022-12-15T02:56:34.498Z,100333.56
2022-12-15T02:59:24.133Z,100328.34
2022-12-15T03:02:06.012Z,100321.72
2022-12-15T03:04:35.576Z,100329.16
2022-12-15T03:07:09.718Z,100338.63
2022-12-15T03:09:36.378Z,100344.84
2022-12-15T03:12:02.842Z,100339.34
2022-12-15T03:14:29.314Z,100334.22
2022-12-15T03:16:56.001Z,100326.06
2022-12-15T03:19:22.854Z,100322.56
2022-12-15T03:21:49.377Z,100337.78
2022-12-15T03:24:15.762Z,100338.25
2022-12-15T03:26:43.584Z,100339.50
2022-12-15T03:29:10.398Z,100340.09
2022-12-15T03:31:36.827Z,100338.47
2022-12-15T03:34:03.275Z,100343.56
2022-12-15T03:36:29.683Z,100342.72
2022-12-15T03:38:56.045Z,100343.41
2022-12-15T03:41:22.433Z,100348.47
2022-12-15T03:43:49.699Z,100360.09
2022-12-15T03:46:16.598Z,100369.75
2022-12-15T03:48:43.321Z,100368.53
2022-12-15T03:51:09.764Z,100374.38
2022-12-15T03:53:36.183Z,100365.22
2022-12-15T03:56:02.633Z,100359.19
2022-12-15T03:58:29.145Z,100359.06
2022-12-15T04:00:55.706Z,100359.38
2022-12-15T04:03:22.541Z,100362.59
2022-12-15T04:05:49.443Z,100348.38
2022-12-15T04:08:15.855Z,100353.97
2022-12-15T04:10:43.579Z,100352.16
2022-12-15T04:13:11.500Z,100348.38
2022-12-15T04:15:39.372Z,100350.88
2022-12-15T04:18:09.952Z,100358.66
2022-12-15T04:20:38.021Z,100353.44
2022-12-15T04:23:07.568Z,100352.78
2022-12-15T04:25:52.612Z,100361.44
2022-12-15T04:28:37.888Z,100355.84
2022-12-15T04:31:22.722Z,100360.94
2022-12-15T04:34:11.145Z,100358.66
2022-12-15T04:36:57.861Z,100364.34
2022-12-15T04:39:43.143Z,100356.91
2022-12-15T04:42:28.440Z,100357.13
2022-12-15T04:45:20.865Z,100355.28
2022-12-15T04:48:06.021Z,100361.22
2022-12-15T04:50:50.971Z,100358.31
2022-12-15T04:53:37.274Z,100356.53
2022-12-15T04:56:23.617Z,100345.63
2022-12-15T04:59:08.431Z,100355.34
2022-12-15T05:01:53.211Z,100362.94
2022-12-15T05:04:38.466Z,100373.03
2022-12-15T05:07:23.533Z,100360.09
2022-12-15T05:10:14.689Z,100365.22
2022-12-15T05:13:00.357Z,100372.34
2022-12-15T05:15:45.222Z,100379.53
2022-12-15T05:18:30.137Z,100382.81
2022-12-15T05:21:17.025Z,100390.53
2022-12-15T05:24:02.201Z,100394.38
2022-12-15T05:26:52.365Z,100392.63
2022-12-15T05:29:38.395Z,100387.38
2022-12-15T05:32:04.885Z,100394.81
2022-12-15T05:34:33.018Z,100396.16
2022-12-15T05:37:01.320Z,100399.22
2022-12-15T05:39:28.219Z,100395.53
2022-12-15T05:41:55.847Z,100404.47
2022-12-15T05:44:23.528Z,100406.16
2022-12-15T05:46:50.020Z,100404.50
2022-12-15T05:49:18.093Z,100402.78
2022-12-15T05:51:47.181Z,100403.84
2022-12-15T05:54:17.412Z,100411.53
2022-12-15T05:56:44.593Z,100415.56
2022-12-15T05:59:11.165Z,100416.81
2022-12-15T06:01:37.747Z,100418.69
2022-12-15T06:04:04.844Z,100420.75
2022-12-15T06:06:31.252Z,100414.41
2022-12-15T06:08:57.706Z,100416.56
2022-12-15T06:11:24.264Z,100418.72
2022-12-15T06:13:50.663Z,100416.03
2022-12-15T06:16:20.311Z,100411.81
2022-12-15T06:18:52.717Z,100409.53
2022-12-15T06:21:26.277Z,100418.53
2022-12-15T06:23:53.288Z,100424.47
2022-12-15T06:26:22.568Z,100422.84
2022-12-15T06:28:50.293Z,100417.16
2022-12-15T06:31:18.476Z,100420.00
2022-12-15T06:33:44.940Z,100416.25
2022-12-15T06:36:13.869Z,100417.88
2022-12-15T06:38:43.555Z,100431.84
2022-12-15T06:41:12.472Z,100431.75
2022-12-15T06:43:39.349Z,100439.03
2022-12-15T06:46:06.529Z,100435.16
2022-12-15T06:48:33.228Z,100427.00
2022-12-15T06:51:13.343Z,100423.41
2022-12-15T06:53:48.930Z,100424.03
2022-12-15T06:56:28.806Z,100432.16
2022-12-15T06:58:59.341Z,100424.53
2022-12-15T07:01:26.717Z,100428.03
2022-12-15T07:03:53.988Z,100425.22
2022-12-15T07:06:21.040Z,100431.00
2022-12-15T07:08:53.805Z,100441.94
2022-12-15T07:11:21.612Z,100443.97
2022-12-15T07:13:52.365Z,100442.41
2022-12-15T07:16:19.785Z,100446.25
2022-12-15T07:18:46.325Z,100447.72
2022-12-15T07:21:12.774Z,100452.34
2022-12-15T07:23:54.217Z,100463.63
2022-12-15T07:26:22.360Z,100460.56
2022-12-15T07:28:48.797Z,100463.53
2022-12-15T07:31:15.693Z,100465.63
2022-12-15T07:33:42.565Z,100468.81
2022-12-15T07:36:09.339Z,100472.41
2022-12-15T07:38:36.451Z,100471.69
2022-12-15T07:41:05.264Z,100471.50
2022-12-15T07:43:32.841Z,100474.50
2022-12-15T07:46:00.329Z,100477.25
2022-12-15T07:48:27.488Z,100470.75
2022-12-15T07:51:02.759Z,100476.84
2022-12-15T07:53:33.985Z,100470.69
2022-12-15T07:56:07.500Z,100468.41
2022-12-15T07:58:35.427Z,100468.91
2022-12-15T08:01:04.525Z,100473.88
2022-12-15T08:03:31.442Z,100474.59
2022-12-15T08:06:03.839Z,100482.56
2022-12-15T08:08:31.203Z,100481.56
2022-12-15T08:10:57.860Z,100482.28
2022-12-15T08:14:00.199Z,100486.56
2022-12-15T08:16:12.180Z,100477.16
2022-12-15T08:18:39.512Z,100491.78
2022-12-15T08:21:08.465Z,100485.19
2022-12-15T08:23:35.788Z,100476.63
2022-12-15T08:26:10.643Z,100473.19
2022-12-15T08:28:39.359Z,100468.84
2022-12-15T08:31:26.325Z,100475.13
2022-12-15T08:33:52.800Z,100492.59
2022-12-15T08:36:20.119Z,100507.06
2022-12-15T08:38:47.213Z,100499.34
2022-12-15T08:41:16.513Z,100504.41
2022-12-15T08:43:48.171Z,100501.63
2022-12-15T08:46:21.196Z,100503.88
2022-12-15T08:48:48.154Z,100502.66
2022-12-15T08:51:15.369Z,100505.97
2022-12-15T08:53:42.128Z,100506.00
2022-12-15T08:56:20.183Z,100516.81
2022-12-15T08:58:47.786Z,100512.53
2022-12-15T09:01:24.024Z,100513.75
2022-12-15T09:03:54.921Z,100519.69
2022-12-15T09:06:27.178Z,100517.94
2022-12-15T09:08:56.448Z,100522.03
2022-12-15T09:11:24.412Z,100530.41
2022-12-15T09:13:51.122Z,100531.13
2022-12-15T09:16:19.245Z,100532.69
2022-12-15T09:18:48.730Z,100546.84
2022-12-15T09:21:15.954Z,100547.31
2022-12-15T09:23:42.652Z,100554.41
2022-12-15T09:26:12.064Z,100555.19
2022-12-15T09:28:39.025Z,100556.84
2022-12-15T09:31:28.308Z,100559.66
2022-12-15T09:33:57.365Z,100558.19
2022-12-15T09:36:24.810Z,100569.81
2022-12-15T09:38:51.688Z,100570.03
2022-12-15T09:41:23.496Z,100576.44
2022-12-15T09:43:58.596Z,100578.94
2022-12-15T09:46:37.895Z,100580.94
2022-12-15T09:49:15.135Z,100586.78
2022-12-15T09:51:50.403Z,100583.38
2022-12-15T09:54:16.870Z,100582.41
2022-12-15T09:57:08.282Z,100585.97
2022-12-15T10:02:42.091Z,100579.69
2022-12-15T10:06:07.061Z,100582.44
2022-12-15T10:08:32.968Z,100573.59
2022-12-15T10:11:04.050Z,100568.25
2022-12-15T10:13:35.549Z,100567.53
2022-12-15T10:16:20.110Z,100575.03
2022-12-15T10:19:01.743Z,100575.28
2022-12-15T10:21:30.762Z,100573.63
2022-12-15T10:24:08.048Z,100569.84
2022-12-15T10:26:35.210Z,100572.22
2022-12-15T10:29:29.187Z,100572.31
2022-12-15T10:32:00.887Z,100573.44
2022-12-15T10:34:30.056Z,100569.00
2022-12-15T10:36:57.747Z,100574.88
2022-12-15T10:39:38.197Z,100578.19
2022-12-15T10:42:16.480Z,100582.91
2022-12-15T10:47:34.718Z,100594.03
2022-12-15T10:50:25.334Z,100587.91
2022-12-15T10:52:52.243Z,100590.78
2022-12-15T10:55:40.091Z,100583.53
2022-12-15T10:58:18.644Z,100583.63
2022-12-15T11:00:46.357Z,100586.50
2022-12-15T11:03:26.701Z,100572.31
2022-12-15T11:05:56.074Z,100568.31
2022-12-15T11:08:24.773Z,100560.97
2022-12-15T11:11:12.795Z,100572.44
2022-12-15T11:13:40.091Z,100567.16
2022-12-15T11:16:20.157Z,100564.81
2022-12-15T11:18:53.813Z,100567.88
2022-12-15T11:21:36.804Z,100554.63
2022-12-15T11:24:17.369Z,100561.72
2022-12-15T11:26:49.036Z,100559.88
2022-12-15T11:29:51.777Z,100556.66
2022-12-15T11:32:24.367Z,100564.69
2022-12-15T11:34:50.985Z,100566.56
2022-12-15T11:37:40.479Z,100561.41
2022-12-15T11:40:24.942Z,100554.72
2022-12-15T11:43:06.585Z,100551.84
2022-12-15T11:46:03.157Z,100548.44
2022-12-15T11:48:49.197Z,100548.22
2022-12-15T11:51:40.379Z,100552.31
2022-12-15T11:54:23.688Z,100543.66
2022-12-15T11:56:59.874Z,100544.19
2022-12-15T11:59:47.694Z,100539.13
2022-12-15T12:02:36.644Z,100541.00
2022-12-15T12:05:22.483Z,100547.91
2022-12-15T12:07:51.974Z,100545.75
2022-12-15T12:10:46.283Z,100542.63
2022-12-15T12:13:24.193Z,100551.50
2022-12-15T12:16:02.657Z,100544.09
2022-12-15T12:18:34.324Z,100545.91
2022-12-15T12:21:26.762Z,100544.78
2022-12-15T12:24:20.935Z,100542.97
2022-12-15T12:26:56.982Z,100538.59
2022-12-15T12:29:33.049Z,100544.91
2022-12-15T12:32:40.788Z,100556.94
2022-12-15T12:35:32.159Z,100551.50
2022-12-15T12:38:04.424Z,100539.81
2022-12-15T12:40:40.687Z,100532.72
2022-12-15T12:43:14.116Z,100525.41
2022-12-15T12:45:50.460Z,100523.47
2022-12-15T12:48:31.923Z,100522.16
2022-12-15T12:51:20.503Z,100516.66
2022-12-15T12:53:47.345Z,100506.75
2022-12-15T12:56:39.689Z,100509.94
2022-12-15T12:59:28.786Z,100494.56
2022-12-15T13:01:57.071Z,100483.88
2022-12-15T13:04:29.272Z,100492.00
2022-12-15T13:06:57.585Z,100478.50
2022-12-15T13:09:36.841Z,100466.56
2022-12-15T13:12:20.647Z,100467.53
2022-12-15T13:14:54.081Z,100450.34
2022-12-15T13:17:29.149Z,100443.16
2022-12-15T13:19:58.264Z,100446.44
2022-12-15T13:22:31.575Z,100448.06
2022-12-15T13:24:58.135Z,100444.16
2022-12-15T13:27:35.560Z,100440.84
2022-12-15T13:30:15.114Z,100431.75
2022-12-15T13:32:45.146Z,100424.38
2022-12-15T13:35:11.977Z,100424.03
2022-12-15T13:37:59.720Z,100430.59
2022-12-15T13:40:51.735Z,100426.81
2022-12-15T13:43:27.081Z,100429.50
2022-12-15T13:45:56.492Z,100426.97
2022-12-15T13:48:33.971Z,100430.34
2022-12-15T13:51:06.247Z,100423.94
2022-12-15T13:53:40.522Z,100422.00
2022-12-15T13:56:12.793Z,100422.63
2022-12-15T13:58:43.518Z,100425.66
2022-12-15T14:01:31.766Z,100415.28
2022-12-15T14:04:12.502Z,100409.25
2022-12-15T14:06:46.740Z,100405.00
2022-12-15T14:09:15.868Z,100407.78
2022-12-15T14:11:53.852Z,100402.63
2022-12-15T14:14:24.358Z,100400.16
2022-12-15T14:17:08.062Z,100396.53
2022-12-15T14:19:42.547Z,100397.91
2022-12-15T14:22:41.147Z,100396.28
2022-12-15T14:25:21.272Z,100398.91
2022-12-15T14:27:50.708Z,100393.03
2022-12-15T14:30:32.906Z,100385.44
2022-12-15T14:33:06.866Z,100384.69
2022-12-15T14:36:06.083Z,100381.88
2022-12-15T14:38:38.466Z,100363.56
2022-12-15T14:41:06.201Z,100363.31
2022-12-15T14:43:38.180Z,100363.34
2022-12-15T14:46:11.172Z,100357.84
2022-12-15T14:48:50.179Z,100355.38
2022-12-15T14:51:18.002Z,100357.84
2022-12-15T14:53:48.857Z,100360.06
2022-12-15T14:56:30.701Z,100358.50
2022-12-15T14:59:17.206Z,100362.03
2022-12-15T15:02:10.946Z,100358.97
2022-12-15T15:03:03.702Z,100588.19
2022-12-15T15:03:04.067Z,100587.03
2022-12-15T15:04:37.394Z,100364.00
2022-12-15T15:07:06.509Z,100371.13
2022-12-15T15:09:39.865Z,100371.97
2022-12-15T15:12:12.557Z,100364.31
2022-12-15T15:14:43.408Z,100368.91
2022-12-15T15:17:12.628Z,100371.78
2022-12-15T15:19:48.483Z,100383.41
2022-12-15T15:22:42.352Z,100381.78
2022-12-15T15:25:39.365Z,100382.25
2022-12-15T15:28:18.383Z,100380.88
2022-12-15T15:30:48.353Z,100378.03
2022-12-15T15:33:15.314Z,100375.78
2022-12-15T15:35:43.311Z,100390.63
2022-12-15T15:38:28.557Z,100392.41
2022-12-15T15:40:56.563Z,100391.63
2022-12-15T15:43:24.617Z,100402.25
2022-12-15T15:46:00.057Z,100399.25
2022-12-15T15:48:30.852Z,100405.97
2022-12-15T15:50:59.888Z,100421.16
2022-12-15T15:53:30.577Z,100416.44
2022-12-15T15:55:57.712Z,100418.78
2022-12-15T15:58:24.150Z,100430.34
2022-12-15T16:00:50.545Z,100435.59
2022-12-15T16:03:17.147Z,100435.69
2022-12-15T16:05:43.854Z,100433.84
2022-12-15T16:08:16.789Z,100440.00
2022-12-15T16:10:47.022Z,100445.97
2022-12-15T16:13:20.778Z,100438.25
2022-12-15T16:15:50.490Z,100446.81
2022-12-15T16:18:16.991Z,100448.84
2022-12-15T16:20:46.233Z,100451.31
2022-12-15T16:23:28.102Z,100456.69
2022-12-15T16:25:59.392Z,100466.16
2022-12-15T16:28:28.829Z,100461.47
2022-12-15T16:31:04.733Z,100468.00
2022-12-15T16:33:31.616Z,100462.72
2022-12-15T16:35:59.169Z,100471.03
2022-12-15T16:38:28.187Z,100467.91
2022-12-15T16:40:56.661Z,100473.19
2022-12-15T16:43:26.914Z,100471.69
2022-12-15T16:45:56.127Z,100474.59
2022-12-15T16:48:22.971Z,100476.34
2022-12-15T16:50:55.295Z,100474.16
2022-12-15T16:53:24.017Z,100472.69
2022-12-15T16:55:58.945Z,100482.66
2022-12-15T16:58:27.512Z,100479.81
2022-12-15T17:00:55.037Z,100480.47
2022-12-15T17:03:25.722Z,100483.53
2022-12-15T17:05:56.104Z,100482.19
2022-12-15T17:08:33.709Z,100488.13
2022-12-15T17:11:01.334Z,100490.78
2022-12-15T17:13:45.746Z,100488.06
2022-12-15T17:16:14.559Z,100490.47
2022-12-15T17:18:42.779Z,100495.34
2022-12-15T17:21:15.184Z,100496.81
2022-12-15T17:23:44.741Z,100495.69
2022-12-15T17:26:27.701Z,100497.19
2022-12-15T17:28:56.287Z,100503.97
2022-12-15T17:31:27.658Z,100508.00
2022-12-15T17:33:56.559Z,100520.47
2022-12-15T17:36:25.144Z,100519.56
2022-12-15T17:39:01.353Z,100511.13
2022-12-15T17:41:58.253Z,100512.94
2022-12-15T17:44:33.113Z,100512.78
2022-12-15T17:47:00.414Z,100513.63
2022-12-15T17:49:30.117Z,100515.63
2022-12-15T17:52:04.325Z,100524.63
2022-12-15T17:54:30.670Z,100521.97
2022-12-15T17:56:57.145Z,100531.94
2022-12-15T17:59:23.545Z,100533.31
2022-12-15T18:01:50.158Z,100538.66
2022-12-15T18:04:16.669Z,100538.28
2022-12-15T18:06:44.136Z,100532.31
2022-12-15T18:09:15.386Z,100532.41
2022-12-15T18:11:43.311Z,100515.34
2022-12-15T18:14:14.601Z,100502.56
2022-12-15T18:16:41.680Z,100498.28
2022-12-15T18:19:08.244Z,100502.13
2022-12-15T18:21:34.859Z,100500.84
2022-12-15T18:24:01.453Z,100495.38
2022-12-15T18:26:27.903Z,100493.44
2022-12-15T18:28:54.494Z,100492.22
2022-12-15T18:31:28.167Z,100488.94
2022-12-15T18:34:04.103Z,100498.38
2022-12-15T18:36:31.332Z,100495.69
2022-12-15T18:38:57.736Z,100495.53
2022-12-15T18:41:24.152Z,100490.19
2022-12-15T18:43:50.881Z,100494.78
2022-12-15T18:46:20.145Z,100498.38
2022-12-15T18:48:46.634Z,100495.81
2022-12-15T18:51:22.141Z,100502.69
2022-12-15T18:53:49.077Z,100493.09
2022-12-15T18:56:18.133Z,100486.81
2022-12-15T18:58:44.648Z,100493.50
2022-12-15T19:01:11.290Z,100499.91
2022-12-15T19:03:38.773Z,100507.97
2022-12-15T19:06:25.276Z,100514.94
2022-12-15T19:08:52.468Z,100510.91
2022-12-15T19:11:33.284Z,100504.72
2022-12-15T19:14:02.134Z,100502.25
2022-12-15T19:16:51.824Z,100497.91
2022-12-15T19:19:36.689Z,100498.38
2022-12-15T19:22:29.528Z,100498.06
2022-12-15T19:24:55.984Z,100496.56
2022-12-15T19:27:26.223Z,100491.78
2022-12-15T19:29:54.682Z,100484.03
2022-12-15T19:32:22.848Z,100490.84
2022-12-15T19:34:49.356Z,100486.25
2022-12-15T19:37:30.948Z,100490.69
2022-12-15T19:39:59.337Z,100497.13
2022-12-15T19:42:44.394Z,100503.41
2022-12-15T19:45:18.776Z,100504.97
2022-12-15T19:47:45.203Z,100497.09
2022-12-15T19:50:19.896Z,100502.09
2022-12-15T19:52:48.992Z,100501.84
2022-12-15T19:55:16.865Z,100493.69
2022-12-15T19:57:44.087Z,100488.75
2022-12-15T20:00:18.537Z,100484.72
2022-12-15T20:02:44.983Z,100493.41
2022-12-15T20:05:11.531Z,100495.16
2022-12-15T20:07:38.054Z,100498.81
2022-12-15T20:10:14.465Z,100496.97
2022-12-15T20:12:44.070Z,100496.31
2022-12-15T20:15:15.874Z,100500.09
2022-12-15T20:17:42.275Z,100491.59
2022-12-15T20:20:13.273Z,100496.00
2022-12-15T20:22:39.832Z,100490.72
2022-12-15T20:25:06.438Z,100491.75
2022-12-15T20:27:32.835Z,100496.72
2022-12-15T20:29:59.254Z,100494.94
2022-12-15T20:32:25.632Z,100491.13
2022-12-15T20:34:51.969Z,100497.97
2022-12-15T20:37:26.904Z,100497.00
2022-12-15T20:39:57.375Z,100491.63
2022-12-15T20:42:24.628Z,100483.19
2022-12-15T20:44:51.306Z,100484.78
2022-12-15T20:47:26.173Z,100485.94
2022-12-15T20:49:54.825Z,100490.47
2022-12-15T20:52:24.616Z,100484.25
2022-12-15T20:54:52.918Z,100493.19
2022-12-15T20:57:19.496Z,100492.22
2022-12-15T20:59:46.352Z,100488.66
2022-12-15T21:02:17.721Z,100489.00
2022-12-15T21:04:44.235Z,100486.75
2022-12-15T21:07:12.020Z,100485.09
2022-12-15T21:09:38.436Z,100493.44
2022-12-15T21:12:22.647Z,100501.81
2022-12-15T21:14:49.373Z,100495.72
2022-12-15T21:17:18.700Z,100492.47
2022-12-15T21:19:45.162Z,100493.22
2022-12-15T21:22:19.336Z,100491.56
2022-12-15T21:24:46.572Z,100497.44
2022-12-15T21:27:13.803Z,100489.66
2022-12-15T21:29:41.562Z,100491.97
2022-12-15T21:32:08.000Z,100488.91
2022-12-15T21:34:35.342Z,100492.47
2022-12-15T21:37:03.367Z,100493.78
2022-12-15T21:39:36.689Z,100491.63
2022-12-15T21:42:16.652Z,100499.06
2022-12-15T21:44:43.056Z,100495.13
2022-12-15T21:47:24.875Z,100495.78
2022-12-15T21:49:51.891Z,100499.31
2022-12-15T21:52:19.699Z,100507.19
2022-12-15T21:54:46.132Z,100510.59
2022-12-15T21:57:12.519Z,100509.50
2022-12-15T21:59:39.092Z,100504.78
2022-12-15T22:02:23.644Z,100508.09
2022-12-15T22:04:51.730Z,100508.34
2022-12-15T22:07:18.691Z,100512.47
2022-12-15T22:09:45.106Z,100514.13
2022-12-15T22:12:20.396Z,100510.91
2022-12-15T22:14:47.296Z,100498.34
2022-12-15T22:17:18.963Z,100501.72
2022-12-15T22:19:45.528Z,100509.66
2022-12-15T22:22:12.760Z,100506.50
2022-12-15T22:24:40.017Z,100505.78
2022-12-15T22:27:17.932Z,100500.59
2022-12-15T22:29:44.440Z,100507.28
2022-12-15T22:32:13.320Z,100508.56
2022-12-15T22:34:40.027Z,100511.22
2022-12-15T22:37:06.773Z,100510.25
2022-12-15T22:39:33.804Z,100516.84
2022-12-15T22:42:01.829Z,100521.97
2022-12-15T22:44:34.628Z,100527.34
2022-12-15T22:47:02.425Z,100521.16
2022-12-15T22:49:35.816Z,100526.34
2022-12-15T22:52:02.530Z,100522.63
2022-12-15T22:54:30.800Z,100534.69
2022-12-15T22:57:05.198Z,100534.88
2022-12-15T22:59:43.458Z,100538.59
2022-12-15T23:02:10.803Z,100532.44
2022-12-15T23:04:37.252Z,100532.97
2022-12-15T23:07:06.947Z,100526.03
2022-12-15T23:09:33.327Z,100533.63
2022-12-15T23:11:59.655Z,100536.94
2022-12-15T23:14:45.428Z,100535.34
2022-12-15T23:17:12.773Z,100530.56
2022-12-15T23:19:45.714Z,100539.63
2022-12-15T23:22:12.388Z,100532.78
2022-12-15T23:24:39.056Z,100542.38
2022-12-15T23:27:10.169Z,100545.16
2022-12-15T23:29:37.412Z,100544.19
2022-12-15T23:32:03.879Z,100550.38
2022-12-15T23:34:30.278Z,100554.53
2022-12-15T23:36:56.616Z,100551.78
2022-12-15T23:39:23.023Z,100546.00
2022-12-15T23:41:49.478Z,100550.28
2022-12-15T23:44:16.829Z,100545.41
2022-12-15T23:46:43.290Z,100544.66
2022-12-15T23:49:09.744Z,100548.81
2022-12-15T23:51:36.133Z,100546.47
2022-12-15T23:54:02.567Z,100545.31
2022-12-15T23:56:28.987Z,100551.44
2022-12-15T23:58:57.500Z,100552.50
